createdAt,value
2023-04-15T00:00:00.748Z,997.98
2023-04-15T00:01:00.745Z,997.97
2023-04-15T00:02:00.800Z,997.95
2023-04-15T00:03:00.747Z,997.94
2023-04-15T00:04:00.782Z,997.93
2023-04-15T00:05:00.708Z,997.93
2023-04-15T00:06:00.642Z,997.93
2023-04-15T00:07:00.646Z,997.92
2023-04-15T00:08:00.618Z,997.91
2023-04-15T00:09:01.008Z,997.90
2023-04-15T00:10:00.602Z,997.90
2023-04-15T00:11:00.616Z,997.91
2023-04-15T00:12:00.596Z,997.91
2023-04-15T00:13:00.831Z,997.91
2023-04-15T00:14:00.589Z,997.91
2023-04-15T00:15:00.554Z,997.91
2023-04-15T00:16:00.548Z,997.91
2023-04-15T00:17:00.621Z,997.91
2023-04-15T00:18:00.670Z,997.92
2023-04-15T00:19:00.741Z,997.93
2023-04-15T00:20:00.513Z,997.94
2023-04-15T00:21:00.482Z,997.94
2023-04-15T00:22:00.494Z,997.95
2023-04-15T00:23:00.472Z,997.94
2023-04-15T00:24:00.507Z,997.94
2023-04-15T00:25:00.500Z,997.93
2023-04-15T00:26:00.449Z,997.93
2023-04-15T00:27:00.509Z,997.90
2023-04-15T00:28:00.440Z,997.90
2023-04-15T00:29:00.577Z,997.88
2023-04-15T00:30:00.456Z,997.87
2023-04-15T00:31:00.472Z,997.87
2023-04-15T00:32:00.413Z,997.87
2023-04-15T00:33:00.395Z,997.86
2023-04-15T00:34:00.409Z,997.85
2023-04-15T00:35:00.357Z,997.85
2023-04-15T00:36:00.364Z,997.85
2023-04-15T00:37:00.365Z,997.84
2023-04-15T00:38:00.325Z,997.83
2023-04-15T00:39:00.569Z,997.83
2023-04-15T00:40:00.369Z,997.83
2023-04-15T00:41:00.335Z,997.83
2023-04-15T00:42:00.294Z,997.82
2023-04-15T00:43:00.309Z,997.82
2023-04-15T00:44:00.263Z,997.81
2023-04-15T00:45:00.274Z,997.79
2023-04-15T00:46:00.373Z,997.79
2023-04-15T00:47:00.273Z,997.78
2023-04-15T00:48:00.389Z,997.77
2023-04-15T00:49:00.403Z,997.76
2023-04-15T00:50:00.249Z,997.76
2023-04-15T00:51:00.500Z,997.76
2023-04-15T00:52:00.223Z,997.76
2023-04-15T00:53:00.171Z,997.75
2023-04-15T00:54:00.201Z,997.75
2023-04-15T00:55:00.214Z,997.74
2023-04-15T00:56:00.149Z,997.74
2023-04-15T00:57:00.149Z,997.75
2023-04-15T00:58:00.154Z,997.73
2023-04-15T00:59:00.416Z,997.72
2023-04-15T01:00:00.171Z,997.72
2023-04-15T01:01:00.168Z,997.71
2023-04-15T01:02:00.186Z,997.71
2023-04-15T01:03:00.432Z,997.72
2023-04-15T01:04:00.315Z,997.71
2023-04-15T01:05:00.087Z,997.71
2023-04-15T01:06:02.124Z,997.71
2023-04-15T01:07:00.079Z,997.71
2023-04-15T01:08:00.093Z,997.70
2023-04-15T01:09:00.186Z,997.71
2023-04-15T01:10:00.076Z,997.70
2023-04-15T01:11:00.004Z,997.70
2023-04-15T01:12:00.101Z,997.70
2023-04-15T01:12:59.997Z,997.69
2023-04-15T01:14:00.018Z,997.68
2023-04-15T01:14:59.976Z,997.67
2023-04-15T01:15:59.981Z,997.68
2023-04-15T01:17:00.002Z,997.68
2023-04-15T01:18:00.006Z,997.69
2023-04-15T01:19:00.228Z,997.69
2023-04-15T01:19:59.995Z,997.69
2023-04-15T01:20:59.902Z,997.70
2023-04-15T01:21:59.907Z,997.71
2023-04-15T01:22:59.889Z,997.71
2023-04-15T01:23:59.994Z,997.72
2023-04-15T01:24:59.914Z,997.73
2023-04-15T01:26:00.121Z,997.74
2023-04-15T01:26:59.893Z,997.75
2023-04-15T01:27:59.934Z,997.76
2023-04-15T01:29:00.159Z,997.76
2023-04-15T01:29:59.861Z,997.76
2023-04-15T01:30:59.831Z,997.76
2023-04-15T01:31:59.828Z,997.76
2023-04-15T01:32:59.912Z,997.76
2023-04-15T01:33:59.801Z,997.76
2023-04-15T01:34:59.784Z,997.75
2023-04-15T01:35:59.783Z,997.75
2023-04-15T01:36:59.759Z,997.76
2023-04-15T01:37:59.756Z,997.76
2023-04-15T01:39:00.100Z,997.76
2023-04-15T01:39:59.784Z,997.77
2023-04-15T01:40:59.723Z,997.78
2023-04-15T01:41:59.742Z,997.78
2023-04-15T01:42:59.692Z,997.79
2023-04-15T01:43:59.843Z,997.80
2023-04-15T01:44:59.751Z,997.80
2023-04-15T01:45:59.674Z,997.80
2023-04-15T01:47:00.241Z,997.80
2023-04-15T01:47:59.716Z,997.80
2023-04-15T01:48:59.876Z,997.80
2023-04-15T01:49:59.786Z,997.80
2023-04-15T01:50:59.650Z,997.80
2023-04-15T01:51:59.632Z,997.81
2023-04-15T01:52:59.639Z,997.82
2023-04-15T01:53:59.591Z,997.83
2023-04-15T01:54:59.586Z,997.84
2023-04-15T01:55:59.678Z,997.85
2023-04-15T01:56:59.591Z,997.86
2023-04-15T01:57:59.578Z,997.87
2023-04-15T01:58:59.781Z,997.87
2023-04-15T01:59:59.584Z,997.87
2023-04-15T02:00:59.552Z,997.87
2023-04-15T02:01:59.513Z,997.86
2023-04-15T02:02:59.600Z,997.85
2023-04-15T02:03:59.619Z,997.85
2023-04-15T02:04:59.590Z,997.84
2023-04-15T02:05:59.588Z,997.84
2023-04-15T02:06:59.442Z,997.84
2023-04-15T02:07:59.470Z,997.84
2023-04-15T02:08:59.596Z,997.84
2023-04-15T02:09:59.490Z,997.83
2023-04-15T02:10:59.414Z,997.83
2023-04-15T02:11:59.447Z,997.84
2023-04-15T02:12:59.422Z,997.84
2023-04-15T02:13:59.401Z,997.84
2023-04-15T02:14:59.366Z,997.84
2023-04-15T02:15:59.414Z,997.83
2023-04-15T02:16:59.485Z,997.83
2023-04-15T02:17:59.393Z,997.82
2023-04-15T02:18:59.501Z,997.81
2023-04-15T02:19:59.320Z,997.81
2023-04-15T02:20:59.354Z,997.80
2023-04-15T02:21:59.307Z,997.80
2023-04-15T02:22:59.339Z,997.80
2023-04-15T02:23:59.325Z,997.79
2023-04-15T02:24:59.354Z,997.80
2023-04-15T02:25:59.279Z,997.81
2023-04-15T02:26:59.264Z,997.81
2023-04-15T02:27:59.251Z,997.82
2023-04-15T02:28:59.473Z,997.83
2023-04-15T02:29:59.235Z,997.83
2023-04-15T02:30:59.237Z,997.83
2023-04-15T02:31:59.290Z,997.82
2023-04-15T02:32:59.202Z,997.82
2023-04-15T02:33:59.343Z,997.83
2023-04-15T02:34:59.268Z,997.84
2023-04-15T02:35:59.202Z,997.85
2023-04-15T02:36:59.241Z,997.86
2023-04-15T02:37:59.166Z,997.88
2023-04-15T02:38:59.254Z,997.90
2023-04-15T02:39:59.145Z,997.90
2023-04-15T02:40:59.142Z,997.90
2023-04-15T02:41:59.113Z,997.90
2023-04-15T02:42:59.146Z,997.89
2023-04-15T02:43:59.105Z,997.89
2023-04-15T02:44:59.134Z,997.88
2023-04-15T02:45:59.385Z,997.87
2023-04-15T02:46:59.070Z,997.87
2023-04-15T02:47:59.092Z,997.87
2023-04-15T02:48:59.304Z,997.87
2023-04-15T02:49:59.101Z,997.87
2023-04-15T02:50:59.092Z,997.86
2023-04-15T02:51:59.025Z,997.87
2023-04-15T02:52:59.057Z,997.88
2023-04-15T02:53:59.023Z,997.89
2023-04-15T02:54:59.031Z,997.89
2023-04-15T02:55:59.015Z,997.89
2023-04-15T02:56:59.049Z,997.89
2023-04-15T02:57:58.958Z,997.89
2023-04-15T02:58:59.042Z,997.89
2023-04-15T02:59:58.933Z,997.90
2023-04-15T03:00:58.987Z,997.89
2023-04-15T03:01:58.942Z,997.89
2023-04-15T03:02:59.099Z,997.90
2023-04-15T03:03:59.098Z,997.91
2023-04-15T03:04:59.003Z,997.91
2023-04-15T03:05:58.876Z,997.93
2023-04-15T03:06:58.884Z,997.94
2023-04-15T03:07:58.865Z,997.94
2023-04-15T03:08:59.023Z,997.94
2023-04-15T03:09:58.825Z,997.95
2023-04-15T03:10:58.813Z,997.95
2023-04-15T03:11:58.827Z,997.96
2023-04-15T03:12:58.798Z,997.96
2023-04-15T03:13:58.842Z,997.95
2023-04-15T03:14:59.705Z,997.97
2023-04-15T03:15:58.845Z,997.96
2023-04-15T03:16:58.785Z,997.98
2023-04-15T03:17:58.845Z,997.98
2023-04-15T03:18:58.817Z,998.00
2023-04-15T03:19:58.778Z,998.01
2023-04-15T03:20:58.704Z,998.00
2023-04-15T03:21:58.703Z,998.00
2023-04-15T03:22:58.686Z,998.00
2023-04-15T03:23:58.728Z,998.00
2023-04-15T03:24:58.771Z,998.01
2023-04-15T03:25:58.712Z,998.01
2023-04-15T03:26:58.662Z,998.00
2023-04-15T03:27:58.683Z,998.00
2023-04-15T03:28:58.750Z,998.00
2023-04-15T03:29:58.643Z,998.02
2023-04-15T03:30:58.803Z,998.03
2023-04-15T03:31:58.643Z,998.02
2023-04-15T03:32:58.674Z,998.02
2023-04-15T03:33:58.616Z,998.00
2023-04-15T03:34:58.592Z,998.01
2023-04-15T03:35:58.556Z,998.00
2023-04-15T03:36:58.564Z,997.99
2023-04-15T03:37:58.538Z,998.00
2023-04-15T03:38:58.860Z,998.01
2023-04-15T03:39:58.539Z,998.02
2023-04-15T03:40:58.501Z,998.02
2023-04-15T03:41:58.503Z,998.02
2023-04-15T03:42:58.533Z,998.00
2023-04-15T03:43:58.527Z,997.98
2023-04-15T03:44:58.504Z,997.98
2023-04-15T03:46:00.222Z,997.98
2023-04-15T03:46:58.446Z,997.98
2023-04-15T03:48:11.301Z,997.98
2023-04-15T03:48:58.471Z,997.98
2023-04-15T03:49:58.442Z,997.98
2023-04-15T03:50:58.402Z,997.97
2023-04-15T03:51:58.402Z,997.97
2023-04-15T03:52:58.404Z,997.95
2023-04-15T03:53:58.413Z,997.94
2023-04-15T03:54:58.395Z,997.92
2023-04-15T03:55:58.375Z,997.91
2023-04-15T03:56:58.349Z,997.92
2023-04-15T03:57:58.377Z,997.92
2023-04-15T03:58:58.416Z,997.92
2023-04-15T03:59:58.480Z,997.93
2023-04-15T04:00:58.321Z,997.93
2023-04-15T04:01:58.517Z,997.94
2023-04-15T04:02:58.494Z,997.95
2023-04-15T04:03:58.353Z,997.95
2023-04-15T04:04:58.243Z,997.96
2023-04-15T04:05:58.310Z,997.96
2023-04-15T04:06:58.234Z,997.96
2023-04-15T04:07:58.182Z,997.96
2023-04-15T04:08:58.227Z,997.95
2023-04-15T04:09:58.239Z,997.94
2023-04-15T04:10:58.180Z,997.93
2023-04-15T04:11:58.211Z,997.93
2023-04-15T04:12:58.126Z,997.93
2023-04-15T04:13:58.130Z,997.94
2023-04-15T04:14:58.143Z,997.94
2023-04-15T04:15:58.217Z,997.93
2023-04-15T04:16:58.300Z,997.94
2023-04-15T04:17:58.150Z,997.94
2023-04-15T04:18:58.145Z,997.94
2023-04-15T04:19:58.080Z,997.95
2023-04-15T04:20:58.086Z,997.95
2023-04-15T04:21:58.062Z,997.94
2023-04-15T04:22:58.039Z,997.93
2023-04-15T04:23:58.050Z,997.93
2023-04-15T04:24:58.042Z,997.92
2023-04-15T04:25:58.018Z,997.92
2023-04-15T04:26:58.014Z,997.91
2023-04-15T04:27:58.104Z,997.91
2023-04-15T04:28:58.029Z,997.91
2023-04-15T04:29:57.974Z,997.92
2023-04-15T04:30:57.979Z,997.91
2023-04-15T04:31:57.980Z,997.92
2023-04-15T04:32:58.985Z,997.91
2023-04-15T04:33:57.981Z,997.91
2023-04-15T04:34:57.946Z,997.90
2023-04-15T04:35:57.957Z,997.89
2023-04-15T04:36:57.913Z,997.87
2023-04-15T04:37:57.907Z,997.86
2023-04-15T04:38:57.938Z,997.85
2023-04-15T04:39:57.881Z,997.84
2023-04-15T04:40:57.871Z,997.84
2023-04-15T04:41:57.890Z,997.85
2023-04-15T04:42:58.113Z,997.87
2023-04-15T04:43:57.930Z,997.89
2023-04-15T04:44:57.911Z,997.91
2023-04-15T04:45:57.837Z,997.92
2023-04-15T04:46:57.796Z,997.94
2023-04-15T04:47:57.803Z,997.95
2023-04-15T04:48:57.809Z,997.96
2023-04-15T04:49:57.781Z,997.98
2023-04-15T04:50:57.798Z,997.97
2023-04-15T04:51:57.806Z,997.97
2023-04-15T04:52:57.749Z,997.96
2023-04-15T04:53:57.743Z,997.96
2023-04-15T04:54:57.729Z,997.95
2023-04-15T04:55:57.852Z,997.94
2023-04-15T04:56:57.789Z,997.94
2023-04-15T04:57:57.706Z,997.93
2023-04-15T04:58:57.721Z,997.93
2023-04-15T04:59:57.688Z,997.94
2023-04-15T05:00:57.682Z,997.95
2023-04-15T05:01:57.689Z,997.96
2023-04-15T05:02:57.871Z,997.97
2023-04-15T05:03:57.695Z,997.97
2023-04-15T05:04:57.615Z,997.98
2023-04-15T05:05:57.654Z,998.00
2023-04-15T05:06:57.591Z,998.02
2023-04-15T05:07:57.596Z,998.04
2023-04-15T05:08:57.612Z,998.05
2023-04-15T05:09:57.666Z,998.05
2023-04-15T05:10:57.656Z,998.05
2023-04-15T05:11:57.663Z,998.04
2023-04-15T05:12:57.527Z,998.04
2023-04-15T05:13:57.555Z,998.06
2023-04-15T05:14:57.549Z,998.08
2023-04-15T05:15:57.578Z,998.12
2023-04-15T05:16:57.533Z,998.14
2023-04-15T05:17:57.591Z,998.15
2023-04-15T05:18:57.497Z,998.16
2023-04-15T05:19:57.492Z,998.17
2023-04-15T05:20:57.499Z,998.18
2023-04-15T05:21:57.450Z,998.21
2023-04-15T05:22:57.474Z,998.23
2023-04-15T05:23:57.432Z,998.26
2023-04-15T05:24:57.439Z,998.26
2023-04-15T05:25:57.424Z,998.25
2023-04-15T05:26:57.427Z,998.25
2023-04-15T05:27:57.434Z,998.25
2023-04-15T05:28:57.389Z,998.25
2023-04-15T05:29:57.395Z,998.25
2023-04-15T05:30:57.419Z,998.24
2023-04-15T05:31:57.360Z,998.24
2023-04-15T05:32:57.409Z,998.22
2023-04-15T05:33:57.361Z,998.22
2023-04-15T05:34:57.333Z,998.21
2023-04-15T05:35:57.340Z,998.22
2023-04-15T05:36:57.300Z,998.22
2023-04-15T05:37:57.346Z,998.24
2023-04-15T05:38:57.339Z,998.26
2023-04-15T05:39:57.259Z,998.28
2023-04-15T05:40:57.974Z,998.30
2023-04-15T05:41:57.283Z,998.33
2023-04-15T05:42:57.265Z,998.35
2023-04-15T05:43:57.233Z,998.36
2023-04-15T05:44:57.243Z,998.37
2023-04-15T05:45:57.309Z,998.38
2023-04-15T05:46:57.220Z,998.39
2023-04-15T05:47:57.265Z,998.40
2023-04-15T05:48:57.315Z,998.41
2023-04-15T05:49:57.193Z,998.42
2023-04-15T05:50:57.231Z,998.42
2023-04-15T05:51:57.149Z,998.42
2023-04-15T05:52:57.161Z,998.43
2023-04-15T05:53:57.128Z,998.44
2023-04-15T05:54:57.109Z,998.44
2023-04-15T05:55:57.125Z,998.45
2023-04-15T05:56:57.121Z,998.45
2023-04-15T05:57:57.084Z,998.46
2023-04-15T05:58:57.095Z,998.48
2023-04-15T05:59:57.157Z,998.49
2023-04-15T06:00:57.062Z,998.48
2023-04-15T06:01:57.149Z,998.48
2023-04-15T06:02:57.158Z,998.47
2023-04-15T06:03:57.199Z,998.45
2023-04-15T06:04:57.103Z,998.43
2023-04-15T06:05:57.031Z,998.42
2023-04-15T06:06:57.018Z,998.42
2023-04-15T06:07:57.099Z,998.42
2023-04-15T06:08:57.154Z,998.42
2023-04-15T06:09:56.955Z,998.41
2023-04-15T06:10:56.962Z,998.41
2023-04-15T06:11:57.052Z,998.40
2023-04-15T06:12:56.972Z,998.39
2023-04-15T06:13:56.936Z,998.40
2023-04-15T06:14:58.944Z,998.41
2023-04-15T06:15:56.934Z,998.41
2023-04-15T06:16:56.909Z,998.43
2023-04-15T06:17:57.009Z,998.45
2023-04-15T06:18:56.960Z,998.46
2023-04-15T06:19:56.876Z,998.48
2023-04-15T06:20:56.906Z,998.49
2023-04-15T06:21:56.847Z,998.51
2023-04-15T06:22:56.854Z,998.51
2023-04-15T06:23:56.858Z,998.51
2023-04-15T06:24:56.835Z,998.51
2023-04-15T06:25:57.324Z,998.50
2023-04-15T06:26:56.799Z,998.50
2023-04-15T06:27:56.814Z,998.51
2023-04-15T06:28:56.837Z,998.52
2023-04-15T06:29:56.765Z,998.52
2023-04-15T06:30:56.797Z,998.53
2023-04-15T06:31:56.815Z,998.53
2023-04-15T06:32:56.811Z,998.53
2023-04-15T06:33:56.783Z,998.53
2023-04-15T06:34:56.799Z,998.53
2023-04-15T06:35:56.707Z,998.53
2023-04-15T06:36:56.701Z,998.53
2023-04-15T06:37:56.739Z,998.54
2023-04-15T06:38:56.691Z,998.54
2023-04-15T06:39:56.733Z,998.56
2023-04-15T06:40:56.702Z,998.58
2023-04-15T06:41:56.677Z,998.59
2023-04-15T06:42:56.661Z,998.60
2023-04-15T06:43:56.660Z,998.61
2023-04-15T06:44:56.635Z,998.63
2023-04-15T06:45:57.225Z,998.64
2023-04-15T06:46:56.617Z,998.66
2023-04-15T06:47:56.661Z,998.67
2023-04-15T06:48:56.592Z,998.69
2023-04-15T06:49:56.583Z,998.70
2023-04-15T06:50:56.600Z,998.72
2023-04-15T06:51:56.575Z,998.72
2023-04-15T06:52:56.555Z,998.73
2023-04-15T06:53:56.529Z,998.72
2023-04-15T06:54:56.521Z,998.72
2023-04-15T06:55:56.526Z,998.72
2023-04-15T06:56:56.588Z,998.70
2023-04-15T06:57:56.510Z,998.69
2023-04-15T06:58:56.493Z,998.67
2023-04-15T06:59:56.484Z,998.64
2023-04-15T07:00:56.469Z,998.61
2023-04-15T07:01:56.500Z,998.60
2023-04-15T07:02:56.513Z,998.59
2023-04-15T07:03:56.442Z,998.57
2023-04-15T07:04:56.480Z,998.58
2023-04-15T07:05:56.420Z,998.57
2023-04-15T07:06:56.506Z,998.57
2023-04-15T07:07:56.407Z,998.58
2023-04-15T07:08:56.413Z,998.57
2023-04-15T07:09:56.362Z,998.56
2023-04-15T07:10:56.385Z,998.53
2023-04-15T07:11:56.373Z,998.53
2023-04-15T07:12:56.372Z,998.50
2023-04-15T07:13:56.380Z,998.49
2023-04-15T07:14:56.417Z,998.48
2023-04-15T07:15:56.314Z,998.48
2023-04-15T07:16:56.533Z,998.49
2023-04-15T07:17:56.426Z,998.51
2023-04-15T07:18:56.327Z,998.54
2023-04-15T07:19:56.266Z,998.55
2023-04-15T07:20:56.552Z,998.55
2023-04-15T07:21:56.265Z,998.54
2023-04-15T07:22:56.260Z,998.51
2023-04-15T07:23:56.270Z,998.51
2023-04-15T07:24:56.308Z,998.51
2023-04-15T07:25:56.211Z,998.52
2023-04-15T07:26:56.861Z,998.54
2023-04-15T07:27:56.227Z,998.56
2023-04-15T07:28:56.171Z,998.57
2023-04-15T07:29:56.300Z,998.59
2023-04-15T07:30:56.177Z,998.59
2023-04-15T07:31:56.216Z,998.62
2023-04-15T07:32:56.217Z,998.64
2023-04-15T07:33:56.120Z,998.64
2023-04-15T07:34:56.134Z,998.64
2023-04-15T07:35:56.100Z,998.64
2023-04-15T07:36:56.112Z,998.64
2023-04-15T07:37:56.089Z,998.63
2023-04-15T07:38:56.068Z,998.65
2023-04-15T07:39:56.057Z,998.68
2023-04-15T07:40:56.085Z,998.72
2023-04-15T07:41:56.042Z,998.74
2023-04-15T07:42:56.128Z,998.75
2023-04-15T07:43:56.100Z,998.78
2023-04-15T07:44:56.029Z,998.77
2023-04-15T07:45:56.070Z,998.75
2023-04-15T07:46:56.002Z,998.77
2023-04-15T07:47:56.022Z,998.77
2023-04-15T07:48:55.986Z,998.79
2023-04-15T07:49:56.002Z,998.80
2023-04-15T07:50:56.248Z,998.79
2023-04-15T07:51:55.940Z,998.81
2023-04-15T07:52:55.952Z,998.81
2023-04-15T07:53:56.507Z,998.82
2023-04-15T07:54:56.242Z,998.79
2023-04-15T07:55:55.958Z,998.77
2023-04-15T07:56:56.020Z,998.77
2023-04-15T07:57:55.883Z,998.75
2023-04-15T07:58:55.901Z,998.75
2023-04-15T07:59:55.855Z,998.74
2023-04-15T08:00:55.885Z,998.74
2023-04-15T08:01:55.873Z,998.75
2023-04-15T08:02:55.933Z,998.76
2023-04-15T08:03:56.022Z,998.74
2023-04-15T08:04:55.965Z,998.75
2023-04-15T08:05:55.925Z,998.74
2023-04-15T08:06:55.862Z,998.74
2023-04-15T08:07:55.830Z,998.73
2023-04-15T08:08:55.809Z,998.73
2023-04-15T08:09:55.745Z,998.71
2023-04-15T08:10:55.770Z,998.73
2023-04-15T08:11:55.756Z,998.72
2023-04-15T08:12:55.749Z,998.73
2023-04-15T08:13:55.816Z,998.72
2023-04-15T08:14:55.704Z,998.74
2023-04-15T08:15:55.716Z,998.73
2023-04-15T08:16:55.762Z,998.71
2023-04-15T08:17:55.760Z,998.70
2023-04-15T08:18:55.661Z,998.70
2023-04-15T08:19:55.793Z,998.70
2023-04-15T08:20:55.709Z,998.70
2023-04-15T08:21:55.696Z,998.70
2023-04-15T08:22:55.640Z,998.71
2023-04-15T08:23:55.688Z,998.70
2023-04-15T08:24:55.654Z,998.70
2023-04-15T08:25:55.609Z,998.71
2023-04-15T08:26:55.878Z,998.72
2023-04-15T08:27:55.569Z,998.72
2023-04-15T08:28:55.568Z,998.73
2023-04-15T08:29:55.547Z,998.74
2023-04-15T08:30:55.545Z,998.75
2023-04-15T08:31:55.618Z,998.77
2023-04-15T08:32:55.608Z,998.77
2023-04-15T08:33:55.604Z,998.78
2023-04-15T08:34:55.526Z,998.78
2023-04-15T08:35:55.492Z,998.78
2023-04-15T08:36:55.480Z,998.79
2023-04-15T08:37:55.508Z,998.79
2023-04-15T08:38:55.490Z,998.78
2023-04-15T08:39:55.468Z,998.78
2023-04-15T08:40:55.663Z,998.78
2023-04-15T08:41:55.449Z,998.78
2023-04-15T08:42:55.417Z,998.79
2023-04-15T08:43:55.463Z,998.79
2023-04-15T08:44:55.417Z,998.79
2023-04-15T08:45:55.406Z,998.79
2023-04-15T08:46:55.422Z,998.79
2023-04-15T08:47:55.439Z,998.79
2023-04-15T08:48:55.428Z,998.80
2023-04-15T08:49:55.346Z,998.80
2023-04-15T08:50:55.420Z,998.79
2023-04-15T08:51:55.374Z,998.79
2023-04-15T08:52:55.367Z,998.78
2023-04-15T08:53:55.358Z,998.77
2023-04-15T08:54:55.322Z,998.76
2023-04-15T08:55:55.295Z,998.77
2023-04-15T08:56:55.338Z,998.77
2023-04-15T08:57:55.299Z,998.76
2023-04-15T08:58:55.337Z,998.75
2023-04-15T08:59:55.304Z,998.76
2023-04-15T09:00:55.353Z,998.76
2023-04-15T09:01:55.342Z,998.77
2023-04-15T09:02:55.352Z,998.75
2023-04-15T09:03:55.431Z,998.73
2023-04-15T09:04:55.282Z,998.73
2023-04-15T09:05:55.398Z,998.71
2023-04-15T09:06:55.278Z,998.71
2023-04-15T09:07:55.263Z,998.74
2023-04-15T09:08:55.337Z,998.77
2023-04-15T09:09:55.258Z,998.76
2023-04-15T09:10:55.297Z,998.76
2023-04-15T09:11:55.241Z,998.78
2023-04-15T09:12:55.109Z,998.78
2023-04-15T09:13:55.156Z,998.75
2023-04-15T09:14:55.108Z,998.80
2023-04-15T09:15:55.262Z,998.82
2023-04-15T09:16:55.214Z,998.86
2023-04-15T09:17:55.115Z,998.89
2023-04-15T09:18:55.109Z,998.85
2023-04-15T09:19:55.078Z,998.81
2023-04-15T09:20:55.138Z,998.81
2023-04-15T09:21:57.311Z,998.88
2023-04-15T09:22:55.047Z,998.87
2023-04-15T09:23:55.014Z,998.85
2023-04-15T09:24:55.011Z,998.87
2023-04-15T09:25:55.012Z,998.90
2023-04-15T09:26:54.987Z,998.90
2023-04-15T09:27:55.000Z,998.93
2023-04-15T09:28:54.963Z,998.97
2023-04-15T09:29:54.957Z,998.99
2023-04-15T09:30:55.216Z,998.96
2023-04-15T09:31:54.930Z,998.95
2023-04-15T09:32:54.964Z,998.97
2023-04-15T09:33:54.943Z,998.97
2023-04-15T09:34:54.892Z,998.99
2023-04-15T09:35:54.892Z,999.01
2023-04-15T09:36:54.947Z,999.04
2023-04-15T09:37:54.973Z,999.03
2023-04-15T09:38:54.874Z,999.03
2023-04-15T09:39:54.885Z,999.07
2023-04-15T09:40:54.825Z,999.04
2023-04-15T09:41:54.847Z,999.06
2023-04-15T09:42:54.933Z,999.09
2023-04-15T09:43:54.845Z,999.05
2023-04-15T09:44:54.806Z,999.11
2023-04-15T09:45:54.870Z,999.11
2023-04-15T09:46:54.872Z,999.10
2023-04-15T09:47:56.804Z,999.10
2023-04-15T09:48:54.764Z,999.09
2023-04-15T09:49:54.826Z,999.12
2023-04-15T09:50:54.772Z,999.12
2023-04-15T09:52:04.390Z,999.11
2023-04-15T09:52:54.791Z,999.12
2023-04-15T09:53:54.733Z,999.11
2023-04-15T09:54:54.679Z,999.12
2023-04-15T09:55:54.798Z,999.13
2023-04-15T09:56:54.682Z,999.11
2023-04-15T09:57:54.682Z,999.13
2023-04-15T09:58:54.679Z,999.15
2023-04-15T09:59:54.660Z,999.14
2023-04-15T10:00:54.646Z,999.13
2023-04-15T10:01:54.722Z,999.12
2023-04-15T10:02:54.819Z,999.12
2023-04-15T10:03:54.683Z,999.12
2023-04-15T10:04:54.607Z,999.12
2023-04-15T10:05:54.642Z,999.10
2023-04-15T10:06:54.591Z,999.12
2023-04-15T10:07:54.599Z,999.14
2023-04-15T10:08:54.535Z,999.13
2023-04-15T10:09:54.570Z,999.13
2023-04-15T10:10:54.642Z,999.15
2023-04-15T10:11:54.582Z,999.16
2023-04-15T10:12:54.532Z,999.14
2023-04-15T10:13:54.515Z,999.13
2023-04-15T10:14:54.491Z,999.15
2023-04-15T10:15:54.625Z,999.16
2023-04-15T10:16:54.494Z,999.19
2023-04-15T10:17:54.545Z,999.20
2023-04-15T10:18:54.464Z,999.23
2023-04-15T10:19:54.466Z,999.22
2023-04-15T10:20:54.486Z,999.23
2023-04-15T10:21:54.485Z,999.28
2023-04-15T10:22:54.425Z,999.26
2023-04-15T10:23:54.400Z,999.28
2023-04-15T10:24:54.415Z,999.31
2023-04-15T10:25:54.417Z,999.32
2023-04-15T10:26:54.366Z,999.32
2023-04-15T10:27:54.372Z,999.38
2023-04-15T10:28:54.383Z,999.38
2023-04-15T10:29:54.375Z,999.37
2023-04-15T10:30:54.396Z,999.33
2023-04-15T10:31:54.349Z,999.36
2023-04-15T10:32:54.421Z,999.39
2023-04-15T10:33:54.307Z,999.36
2023-04-15T10:34:54.749Z,999.39
2023-04-15T10:35:54.406Z,999.34
2023-04-15T10:36:54.309Z,999.36
2023-04-15T10:37:54.293Z,999.40
2023-04-15T10:38:54.250Z,999.41
2023-04-15T10:39:54.384Z,999.37
2023-04-15T10:40:54.261Z,999.42
2023-04-15T10:41:54.328Z,999.40
2023-04-15T10:42:54.302Z,999.47
2023-04-15T10:43:54.253Z,999.47
2023-04-15T10:44:54.239Z,999.46
2023-04-15T10:45:54.185Z,999.49
2023-04-15T10:46:54.415Z,999.54
2023-04-15T10:47:54.229Z,999.53
2023-04-15T10:48:54.163Z,999.55
2023-04-15T10:49:54.476Z,999.57
2023-04-15T10:50:54.138Z,999.56
2023-04-15T10:51:54.390Z,999.60
2023-04-15T10:52:54.171Z,999.62
2023-04-15T10:53:54.127Z,999.61
2023-04-15T10:54:54.075Z,999.64
2023-04-15T10:55:54.203Z,999.62
2023-04-15T10:56:54.144Z,999.60
2023-04-15T10:57:54.104Z,999.64
2023-04-15T10:58:54.072Z,999.64
2023-04-15T10:59:54.393Z,999.65
2023-04-15T11:00:54.137Z,999.68
2023-04-15T11:01:54.270Z,999.68
2023-04-15T11:02:54.227Z,999.70
2023-04-15T11:03:54.152Z,999.71
2023-04-15T11:04:55.070Z,999.70
2023-04-15T11:05:54.034Z,999.71
2023-04-15T11:06:53.972Z,999.72
2023-04-15T11:07:54.021Z,999.72
2023-04-15T11:08:53.957Z,999.75
2023-04-15T11:09:53.988Z,999.75
2023-04-15T11:10:53.922Z,999.73
2023-04-15T11:11:53.931Z,999.73
2023-04-15T11:12:53.966Z,999.74
2023-04-15T11:13:53.964Z,999.73
2023-04-15T11:14:53.963Z,999.73
2023-04-15T11:15:53.999Z,999.72
2023-04-15T11:16:53.931Z,999.74
2023-04-15T11:17:53.904Z,999.74
2023-04-15T11:18:54.927Z,999.72
2023-04-15T11:19:53.831Z,999.71
2023-04-15T11:20:53.816Z,999.71
2023-04-15T11:21:53.871Z,999.71
2023-04-15T11:23:13.937Z,999.74
2023-04-15T11:23:53.800Z,999.74
2023-04-15T11:24:53.789Z,999.78
2023-04-15T11:25:53.794Z,999.76
2023-04-15T11:26:53.852Z,999.78
2023-04-15T11:27:53.764Z,999.80
2023-04-15T11:28:53.808Z,999.79
2023-04-15T11:29:53.803Z,999.80
2023-04-15T11:30:53.768Z,999.76
2023-04-15T11:31:53.842Z,999.72
2023-04-15T11:32:53.748Z,999.75
2023-04-15T11:33:53.740Z,999.72
2023-04-15T11:34:53.834Z,999.73
2023-04-15T11:35:53.877Z,999.75
2023-04-15T11:36:53.681Z,999.77
2023-04-15T11:37:55.562Z,999.76
2023-04-15T11:38:53.753Z,999.83
2023-04-15T11:39:53.709Z,999.78
2023-04-15T11:40:53.728Z,999.85
2023-04-15T11:41:53.676Z,999.86
2023-04-15T11:42:55.879Z,999.87
2023-04-15T11:43:53.644Z,999.88
2023-04-15T11:44:53.707Z,999.92
2023-04-15T11:45:53.679Z,999.97
2023-04-15T11:46:53.617Z,999.95
2023-04-15T11:47:53.644Z,999.96
2023-04-15T11:48:53.614Z,999.98
2023-04-15T11:49:53.612Z,1000.02
2023-04-15T11:50:53.627Z,1000.03
2023-04-15T11:51:53.563Z,1000.06
2023-04-15T11:52:53.636Z,1000.04
2023-04-15T11:53:53.857Z,1000.06
2023-04-15T11:54:53.549Z,1000.05
2023-04-15T11:55:53.499Z,1000.08
2023-04-15T11:56:53.632Z,1000.09
2023-04-15T11:57:53.496Z,1000.09
2023-04-15T11:58:53.459Z,1000.16
2023-04-15T11:59:55.493Z,1000.12
2023-04-15T12:00:53.480Z,1000.11
2023-04-15T12:01:53.481Z,1000.15
2023-04-15T12:02:53.648Z,1000.15
2023-04-15T12:03:53.759Z,1000.17
2023-04-15T12:04:53.488Z,1000.15
2023-04-15T12:05:53.465Z,1000.18
2023-04-15T12:06:53.594Z,1000.16
2023-04-15T12:07:53.336Z,1000.17
2023-04-15T12:08:53.617Z,1000.16
2023-04-15T12:09:53.460Z,1000.24
2023-04-15T12:10:53.356Z,1000.22
2023-04-15T12:11:53.337Z,1000.21
2023-04-15T12:12:53.287Z,1000.22
2023-04-15T12:13:53.331Z,1000.26
2023-04-15T12:14:53.528Z,1000.28
2023-04-15T12:15:53.319Z,1000.30
2023-04-15T12:16:53.344Z,1000.30
2023-04-15T12:17:53.320Z,1000.29
2023-04-15T12:18:53.470Z,1000.29
2023-04-15T12:19:53.280Z,1000.35
2023-04-15T12:20:53.332Z,1000.28
2023-04-15T12:21:53.643Z,1000.29
2023-04-15T12:22:53.260Z,1000.32
2023-04-15T12:23:53.265Z,1000.35
2023-04-15T12:24:53.219Z,1000.36
2023-04-15T12:25:53.216Z,1000.40
2023-04-15T12:26:53.338Z,1000.38